sensor_id;sensor_type;location;lat;lon;timestamp;pressure;altitude;pressure_sealevel;temperature;humidity
5996;BME280;3026;53.612;7.278;2024-03-25T00:01:01;100292.09;;;6.67;100.00
5996;BME280;3026;53.612;7.278;2024-03-25T00:03:27;100288.38;;;6.68;100.00
5996;BME280;3026;53.612;7.278;2024-03-25T00:05:56;100286.50;;;6.68;100.00
5996;BME280;3026;53.612;7.278;2024-03-25T00:08:23;100284.66;;;6.69;100.00
5996;BME280;3026;53.612;7.278;2024-03-25T00:10:51;100286.34;;;6.70;100.00
5996;BME280;3026;53.612;7.278;2024-03-25T00:13:17;100283.63;;;6.70;100.00
5996;BME280;3026;53.612;7.278;2024-03-25T00:15:45;100280.94;;;6.70;100.00
5996;BME280;3026;53.612;7.278;2024-03-25T00:18:11;100285.03;;;6.74;100.00
5996;BME280;3026;53.612;7.278;2024-03-25T00:20:38;100273.19;;;6.75;100.00
5996;BME280;3026;53.612;7.278;2024-03-25T00:23:05;100276.56;;;6.77;100.00
5996;BME280;3026;53.612;7.278;2024-03-25T00:25:32;100276.56;;;6.77;100.00
5996;BME280;3026;53.612;7.278;2024-03-25T00:28:04;100280.81;;;6.80;100.00
5996;BME280;3026;53.612;7.278;2024-03-25T00:30:31;100278.28;;;6.78;100.00
5996;BME280;3026;53.612;7.278;2024-03-25T00:32:57;100272.84;;;6.78;100.00
5996;BME280;3026;53.612;7.278;2024-03-25T00:35:24;100267.59;;;6.77;100.00
5996;BME280;3026;53.612;7.278;2024-03-25T00:37:51;100274.88;;;6.76;100.00
5996;BME280;3026;53.612;7.278;2024-03-25T00:40:18;100273.19;;;6.75;100.00
5996;BME280;3026;53.612;7.278;2024-03-25T00:42:44;100271.50;;;6.74;100.00
5996;BME280;3026;53.612;7.278;2024-03-25T00:45:13;100276.34;;;6.70;100.00
5996;BME280;3026;53.612;7.278;2024-03-25T00:47:39;100281.25;;;6.67;100.00
5996;BME280;3026;53.612;7.278;2024-03-25T00:50:08;100280.91;;;6.62;100.00
5996;BME280;3026;53.612;7.278;2024-03-25T00:52:35;100271.53;;;6.56;100.00
5996;BME280;3026;53.612;7.278;2024-03-25T00:55:02;100278.31;;;6.52;100.00
5996;BME280;3026;53.612;7.278;2024-03-25T00:57:30;100284.06;;;6.49;100.00
5996;BME280;3026;53.612;7.278;2024-03-25T00:59:58;100290.59;;;6.47;100.00
5996;BME280;3026;53.612;7.278;2024-03-25T01:02:27;100290.94;;;6.43;100.00
5996;BME280;3026;53.612;7.278;2024-03-25T01:04:54;100295.66;;;6.41;100.00
5996;BME280;3026;53.612;7.278;2024-03-25T01:07:20;100292.97;;;6.41;100.00
5996;BME280;3026;53.612;7.278;2024-03-25T01:09:47;100297.53;;;6.41;100.00
5996;BME280;3026;53.612;7.278;2024-03-25T01:12:15;100307.19;;;6.43;100.00
5996;BME280;3026;53.612;7.278;2024-03-25T01:14:42;100298.06;;;6.44;100.00
5996;BME280;3026;53.612;7.278;2024-03-25T01:17:08;100302.28;;;6.47;100.00
5996;BME280;3026;53.612;7.278;2024-03-25T01:19:38;100292.16;;;6.49;100.00
5996;BME280;3026;53.612;7.278;2024-03-25T01:22:05;100301.84;;;6.52;100.00
5996;BME280;3026;53.612;7.278;2024-03-25T01:24:32;100305.22;;;6.54;100.00
5996;BME280;3026;53.612;7.278;2024-03-25T01:26:58;100297.94;;;6.54;100.00
5996;BME280;3026;53.612;7.278;2024-03-25T01:29:26;100296.09;;;6.55;100.00
5996;BME280;3026;53.612;7.278;2024-03-25T01:31:52;100293.38;;;6.55;100.00
5996;BME280;3026;53.612;7.278;2024-03-25T01:34:20;100294.06;;;6.57;100.00
5996;BME280;3026;53.612;7.278;2024-03-25T01:36:48;100293.03;;;6.58;100.00
5996;BME280;3026;53.612;7.278;2024-03-25T01:39:15;100296.31;;;6.61;100.00
5996;BME280;3026;53.612;7.278;2024-03-25T01:41:41;100287.00;;;6.64;100.00
5996;BME280;3026;53.612;7.278;2024-03-25T01:44:08;100299.53;;;6.65;100.00
5996;BME280;3026;53.612;7.278;2024-03-25T01:46:35;100304.97;;;6.65;100.00
5996;BME280;3026;53.612;7.278;2024-03-25T01:49:03;100295.47;;;6.61;100.00
5996;BME280;3026;53.612;7.278;2024-03-25T01:51:29;100308.28;;;6.59;100.00
5996;BME280;3026;53.612;7.278;2024-03-25T01:54:00;100302.19;;;6.57;100.00
5996;BME280;3026;53.612;7.278;2024-03-25T01:56:27;100302.19;;;6.57;100.00
5996;BME280;3026;53.612;7.278;2024-03-25T01:58:58;100306.59;;;6.58;100.00
5996;BME280;3026;53.612;7.278;2024-03-25T02:01:25;100312.69;;;6.60;100.00
5996;BME280;3026;53.612;7.278;2024-03-25T02:03:52;100315.09;;;6.63;100.00
5996;BME280;3026;53.612;7.278;2024-03-25T02:06:20;100305.13;;;6.63;100.00
5996;BME280;3026;53.612;7.278;2024-03-25T02:08:48;100324.94;;;6.64;100.00
5996;BME280;3026;53.612;7.278;2024-03-25T02:11:17;100316.63;;;6.65;100.00
5996;BME280;3026;53.612;7.278;2024-03-25T02:13:46;100322.91;;;6.66;100.00
5996;BME280;3026;53.612;7.278;2024-03-25T02:16:12;100316.47;;;6.67;100.00
5996;BME280;3026;53.612;7.278;2024-03-25T02:18:39;100324.59;;;6.67;100.00
5996;BME280;3026;53.612;7.278;2024-03-25T02:21:05;100320.88;;;6.68;100.00
5996;BME280;3026;53.612;7.278;2024-03-25T02:23:34;100320.19;;;6.66;100.00
5996;BME280;3026;53.612;7.278;2024-03-25T02:26:07;100319.00;;;6.60;100.00
5996;BME280;3026;53.612;7.278;2024-03-25T02:28:41;100327.56;;;6.56;100.00
5996;BME280;3026;53.612;7.278;2024-03-25T02:31:09;100331.28;;;6.55;100.00
5996;BME280;3026;53.612;7.278;2024-03-25T02:33:36;100333.00;;;6.56;100.00
5996;BME280;3026;53.612;7.278;2024-03-25T02:36:04;100334.69;;;6.57;100.00
5996;BME280;3026;53.612;7.278;2024-03-25T02:38:31;100328.09;;;6.59;100.00
5996;BME280;3026;53.612;7.278;2024-03-25T02:40:58;100330.50;;;6.62;100.00
5996;BME280;3026;53.612;7.278;2024-03-25T02:43:27;100332.91;;;6.65;100.00
5996;BME280;3026;53.612;7.278;2024-03-25T02:45:55;100337.47;;;6.65;100.00
5996;BME280;3026;53.612;7.278;2024-03-25T02:48:22;100339.16;;;6.66;100.00
5996;BME280;3026;53.612;7.278;2024-03-25T02:50:49;100341.19;;;6.64;100.00
5996;BME280;3026;53.612;7.278;2024-03-25T02:53:17;100332.91;;;6.65;100.00
5996;BME280;3026;53.612;7.278;2024-03-25T02:55:43;100340.19;;;6.65;100.00
5996;BME280;3026;53.612;7.278;2024-03-25T02:58:11;100344.91;;;6.63;100.00
5996;BME280;3026;53.612;7.278;2024-03-25T03:00:43;100346.59;;;6.64;100.00
5996;BME280;3026;53.612;7.278;2024-03-25T03:03:10;100343.91;;;6.64;100.00
5996;BME280;3026;53.612;7.278;2024-03-25T03:05:37;100343.72;;;6.65;100.00
5996;BME280;3026;53.612;7.278;2024-03-25T03:08:04;100341.03;;;6.65;100.00
5996;BME280;3026;53.612;7.278;2024-03-25T03:10:30;100344.56;;;6.66;100.00
5996;BME280;3026;53.612;7.278;2024-03-25T03:12:58;100344.56;;;6.66;100.00
5996;BME280;3026;53.612;7.278;2024-03-25T03:15:23;100347.97;;;6.68;100.00
5996;BME280;3026;53.612;7.278;2024-03-25T03:17:53;100355.25;;;6.67;100.00
5996;BME280;3026;53.612;7.278;2024-03-25T03:20:19;100357.44;;;6.64;100.00
5996;BME280;3026;53.612;7.278;2024-03-25T03:22:47;100363.19;;;6.61;100.00
5996;BME280;3026;53.612;7.278;2024-03-25T03:25:13;100365.19;;;6.59;100.00
5996;BME280;3026;53.612;7.278;2024-03-25T03:27:43;100362.63;;;6.57;100.00
5996;BME280;3026;53.612;7.278;2024-03-25T03:30:10;100360.09;;;6.56;100.00
5996;BME280;3026;53.612;7.278;2024-03-25T03:32:38;100360.09;;;6.56;100.00
5996;BME280;3026;53.612;7.278;2024-03-25T03:35:07;100353.81;;;6.55;100.00
5996;BME280;3026;53.612;7.278;2024-03-25T03:37:35;100354.66;;;6.56;100.00
5996;BME280;3026;53.612;7.278;2024-03-25T03:40:01;100352.97;;;6.55;100.00
5996;BME280;3026;53.612;7.278;2024-03-25T03:42:31;100362.78;;;6.56;100.00
5996;BME280;3026;53.612;7.278;2024-03-25T03:44:57;100361.78;;;6.57;100.00
5996;BME280;3026;53.612;7.278;2024-03-25T03:47:25;100367.19;;;6.57;100.00
5996;BME280;3026;53.612;7.278;2024-03-25T03:49:51;100373.47;;;6.57;100.00
5996;BME280;3026;53.612;7.278;2024-03-25T03:52:20;100371.31;;;6.61;100.00
5996;BME280;3026;53.612;7.278;2024-03-25T03:54:47;100370.28;;;6.62;100.00
5996;BME280;3026;53.612;7.278;2024-03-25T03:57:14;100373.69;;;6.64;100.00
5996;BME280;3026;53.612;7.278;2024-03-25T03:59:40;100379.09;;;6.64;100.00
5996;BME280;3026;53.612;7.278;2024-03-25T04:02:08;100379.09;;;6.64;100.00
5996;BME280;3026;53.612;7.278;2024-03-25T04:04:35;100386.22;;;6.65;100.00
5996;BME280;3026;53.612;7.278;2024-03-25T04:07:03;100385.38;;;6.64;100.00
5996;BME280;3026;53.612;7.278;2024-03-25T04:09:31;100381.81;;;6.64;100.00
5996;BME280;3026;53.612;7.278;2024-03-25T04:11:59;100385.53;;;6.63;100.00
5996;BME280;3026;53.612;7.278;2024-03-25T04:14:26;100382.84;;;6.63;100.00
5996;BME280;3026;53.612;7.278;2024-03-25T04:16:53;100379.09;;;6.64;100.00
5996;BME280;3026;53.612;7.278;2024-03-25T04:19:23;100381.13;;;6.62;100.00
5996;BME280;3026;53.612;7.278;2024-03-25T04:21:50;100372.63;;;6.57;100.00
5996;BME280;3026;53.612;7.278;2024-03-25T04:24:17;100376.84;;;6.59;100.00
5996;BME280;3026;53.612;7.278;2024-03-25T04:26:46;100376.00;;;6.59;100.00
5996;BME280;3026;53.612;7.278;2024-03-25T04:29:14;100378.03;;;6.57;100.00
5996;BME280;3026;53.612;7.278;2024-03-25T04:31:41;100380.06;;;6.55;100.00
5996;BME280;3026;53.612;7.278;2024-03-25T04:34:08;100390.88;;;6.55;100.00
5996;BME280;3026;53.612;7.278;2024-03-25T04:36:36;100387.50;;;6.53;100.00
5996;BME280;3026;53.612;7.278;2024-03-25T04:39:02;100392.22;;;6.51;100.00
5996;BME280;3026;53.612;7.278;2024-03-25T04:41:28;100403.06;;;6.51;100.00
5996;BME280;3026;53.612;7.278;2024-03-25T04:43:57;100403.75;;;6.53;100.00
5996;BME280;3026;53.612;7.278;2024-03-25T04:46:23;100398.31;;;6.53;100.00
5996;BME280;3026;53.612;7.278;2024-03-25T04:48:50;100404.59;;;6.53;100.00
5996;BME280;3026;53.612;7.278;2024-03-25T04:51:17;100409.16;;;6.53;100.00
5996;BME280;3026;53.612;7.278;2024-03-25T04:53:43;100405.75;;;6.51;100.00
5996;BME280;3026;53.612;7.278;2024-03-25T04:56:11;100409.47;;;6.50;100.00
5996;BME280;3026;53.612;7.278;2024-03-25T04:58:38;100410.63;;;6.47;100.00
5996;BME280;3026;53.612;7.278;2024-03-25T05:01:07;100416.19;;;6.46;100.00
5996;BME280;3026;53.612;7.278;2024-03-25T05:03:33;100422.63;;;6.44;100.00
5996;BME280;3026;53.612;7.278;2024-03-25T05:05:59;100422.94;;;6.41;100.00
5996;BME280;3026;53.612;7.278;2024-03-25T05:08:25;100429.38;;;6.40;100.00
5996;BME280;3026;53.612;7.278;2024-03-25T05:10:52;100441.22;;;6.39;100.00
5996;BME280;3026;53.612;7.278;2024-03-25T05:13:18;100437.81;;;6.37;100.00
5996;BME280;3026;53.612;7.278;2024-03-25T05:15:49;100439.50;;;6.38;100.00
5996;BME280;3026;53.612;7.278;2024-03-25T05:18:17;100443.22;;;6.37;100.00
5996;BME280;3026;53.612;7.278;2024-03-25T05:20:43;100441.50;;;6.36;100.00
5996;BME280;3026;53.612;7.278;2024-03-25T05:23:10;100443.22;;;6.37;100.00
5996;BME280;3026;53.612;7.278;2024-03-25T05:25:39;100441.50;;;6.36;100.00
5996;BME280;3026;53.612;7.278;2024-03-25T05:28:05;100433.69;;;6.33;100.00
5996;BME280;3026;53.612;7.278;2024-03-25T05:30:31;100438.41;;;6.31;100.00
5996;BME280;3026;53.612;7.278;2024-03-25T05:32:57;100439.06;;;6.25;100.00
5996;BME280;3026;53.612;7.278;2024-03-25T05:35:26;100436.63;;;6.22;100.00
5996;BME280;3026;53.612;7.278;2024-03-25T05:37:53;100445.06;;;6.19;100.00
5996;BME280;3026;53.612;7.278;2024-03-25T05:40:19;100445.38;;;6.16;100.00
5996;BME280;3026;53.612;7.278;2024-03-25T05:42:45;100443.81;;;6.13;100.00
5996;BME280;3026;53.612;7.278;2024-03-25T05:45:11;100443.97;;;6.12;100.00
5996;BME280;3026;53.612;7.278;2024-03-25T05:47:37;100454.81;;;6.12;100.00
5996;BME280;3026;53.612;7.278;2024-03-25T05:50:05;100454.81;;;6.12;100.00
5996;BME280;3026;53.612;7.278;2024-03-25T05:52:33;100451.09;;;6.13;100.00
5996;BME280;3026;53.612;7.278;2024-03-25T05:54:59;100443.69;;;6.15;100.00
5996;BME280;3026;53.612;7.278;2024-03-25T05:57:25;100447.94;;;6.18;100.00
5996;BME280;3026;53.612;7.278;2024-03-25T05:59:51;100453.19;;;6.19;100.00
5996;BME280;3026;53.612;7.278;2024-03-25T06:02:18;100459.16;;;6.23;100.00
5996;BME280;3026;53.612;7.278;2024-03-25T06:04:47;100451.88;;;6.23;100.00
5996;BME280;3026;53.612;7.278;2024-03-25T06:07:14;100447.47;;;6.22;100.00
5996;BME280;3026;53.612;7.278;2024-03-25T06:09:43;100454.41;;;6.25;100.00
5996;BME280;3026;53.612;7.278;2024-03-25T06:12:10;100446.16;;;6.26;100.00
5996;BME280;3026;53.612;7.278;2024-03-25T06:14:36;100443.47;;;6.26;100.00
5996;BME280;3026;53.612;7.278;2024-03-25T06:17:03;100451.59;;;6.26;100.00
5996;BME280;3026;53.612;7.278;2024-03-25T06:19:29;100453.56;;;6.24;100.00
5996;BME280;3026;53.612;7.278;2024-03-25T06:21:55;100453.56;;;6.24;100.00
5996;BME280;3026;53.612;7.278;2024-03-25T06:24:22;100446.47;;;6.23;100.00
5996;BME280;3026;53.612;7.278;2024-03-25T06:26:50;100449.16;;;6.23;100.00
5996;BME280;3026;53.612;7.278;2024-03-25T06:29:16;100452.59;;;6.25;100.00
5996;BME280;3026;53.612;7.278;2024-03-25T06:31:42;100451.59;;;6.26;100.00
5996;BME280;3026;53.612;7.278;2024-03-25T06:34:27;100458.53;;;6.29;100.00
5996;BME280;3026;53.612;7.278;2024-03-25T06:36:53;100463.47;;;6.33;100.00
5996;BME280;3026;53.612;7.278;2024-03-25T06:39:19;100474.88;;;6.37;100.00
5996;BME280;3026;53.612;7.278;2024-03-25T06:41:47;100476.25;;;6.41;100.00
5996;BME280;3026;53.612;7.278;2024-03-25T06:44:14;100475.09;;;6.43;100.00
5996;BME280;3026;53.612;7.278;2024-03-25T06:46:40;100481.88;;;6.48;100.00
5996;BME280;3026;53.612;7.278;2024-03-25T06:49:07;100482.28;;;6.53;100.00
5996;BME280;3026;53.612;7.278;2024-03-25T06:51:33;100492.81;;;6.56;100.00
5996;BME280;3026;53.612;7.278;2024-03-25T06:53:59;100480.34;;;6.63;100.00
5996;BME280;3026;53.612;7.278;2024-03-25T06:56:26;100485.13;;;6.69;100.00
5996;BME280;3026;53.612;7.278;2024-03-25T06:58:52;100491.66;;;6.76;100.00
5996;BME280;3026;53.612;7.278;2024-03-25T07:01:20;100485.91;;;6.79;100.00
5996;BME280;3026;53.612;7.278;2024-03-25T07:03:46;100481.34;;;6.80;100.00
5996;BME280;3026;53.612;7.278;2024-03-25T07:06:13;100483.88;;;6.81;100.00
5996;BME280;3026;53.612;7.278;2024-03-25T07:08:39;100480.16;;;6.82;100.00
5996;BME280;3026;53.612;7.278;2024-03-25T07:11:09;100479.63;;;6.79;100.00
5996;BME280;3026;53.612;7.278;2024-03-25T07:13:35;100486.06;;;6.78;100.00
5996;BME280;3026;53.612;7.278;2024-03-25T07:16:02;100486.22;;;6.76;100.00
5996;BME280;3026;53.612;7.278;2024-03-25T07:18:31;100484.53;;;6.75;100.00
5996;BME280;3026;53.612;7.278;2024-03-25T07:20:57;100485.38;;;6.76;100.00
5996;BME280;3026;53.612;7.278;2024-03-25T07:23:23;100484.19;;;6.78;100.00
5996;BME280;3026;53.612;7.278;2024-03-25T07:25:51;100487.59;;;6.80;100.00
5996;BME280;3026;53.612;7.278;2024-03-25T07:28:17;100485.91;;;6.79;100.00
5996;BME280;3026;53.612;7.278;2024-03-25T07:30:43;100484.88;;;6.80;100.00
5996;BME280;3026;53.612;7.278;2024-03-25T07:33:10;100483.59;;;6.84;100.00
5996;BME280;3026;53.612;7.278;2024-03-25T07:35:38;100485.66;;;6.90;100.00
5996;BME280;3026;53.612;7.278;2024-03-25T07:38:04;100483.47;;;6.94;100.00
5996;BME280;3026;53.612;7.278;2024-03-25T07:40:31;100485.56;;;7.00;100.00
5996;BME280;3026;53.612;7.278;2024-03-25T07:42:57;100485.63;;;7.08;100.00
5996;BME280;3026;53.612;7.278;2024-03-25T07:45:23;100490.25;;;7.16;100.00
5996;BME280;3026;53.612;7.278;2024-03-25T07:47:50;100485.72;;;7.24;100.00
5996;BME280;3026;53.612;7.278;2024-03-25T07:50:16;100487.66;;;7.32;100.00
5996;BME280;3026;53.612;7.278;2024-03-25T07:52:44;100494.13;;;7.39;100.00
5996;BME280;3026;53.612;7.278;2024-03-25T07:55:11;100493.31;;;7.47;100.00
5996;BME280;3026;53.612;7.278;2024-03-25T07:57:38;100490.81;;;7.53;100.00
5996;BME280;3026;53.612;7.278;2024-03-25T08:00:06;100493.56;;;7.61;100.00
5996;BME280;3026;53.612;7.278;2024-03-25T08:02:33;100493.44;;;7.71;100.00
5996;BME280;3026;53.612;7.278;2024-03-25T08:04:59;100493.31;;;7.81;100.00
5996;BME280;3026;53.612;7.278;2024-03-25T08:07:25;100499.81;;;7.88;100.00
5996;BME280;3026;53.612;7.278;2024-03-25T08:09:53;100501.69;;;7.96;100.00
5996;BME280;3026;53.612;7.278;2024-03-25T08:12:19;100502.41;;;8.06;100.00
5996;BME280;3026;53.612;7.278;2024-03-25T08:14:46;100510.41;;;8.15;100.00
5996;BME280;3026;53.612;7.278;2024-03-25T08:17:14;100504.19;;;8.23;100.00
5996;BME280;3026;53.612;7.278;2024-03-25T08:19:40;100506.88;;;8.31;100.00
5996;BME280;3026;53.612;7.278;2024-03-25T08:22:07;100503.88;;;8.42;100.00
5996;BME280;3026;53.612;7.278;2024-03-25T08:24:33;100512.41;;;8.56;100.00
5996;BME280;3026;53.612;7.278;2024-03-25T08:27:01;100506.81;;;8.65;100.00
5996;BME280;3026;53.612;7.278;2024-03-25T08:29:27;100511.56;;;8.80;100.00
5996;BME280;3026;53.612;7.278;2024-03-25T08:31:54;100519.75;;;8.88;100.00
5996;BME280;3026;53.612;7.278;2024-03-25T08:34:20;100518.41;;;8.84;100.00
5996;BME280;3026;53.612;7.278;2024-03-25T08:36:47;100520.94;;;8.85;100.00
5996;BME280;3026;53.612;7.278;2024-03-25T08:39:13;100509.56;;;8.82;100.00
5996;BME280;3026;53.612;7.278;2024-03-25T08:41:39;100515.84;;;8.82;100.00
5996;BME280;3026;53.612;7.278;2024-03-25T08:44:07;100515.31;;;8.78;100.00
5996;BME280;3026;53.612;7.278;2024-03-25T08:46:33;100517.34;;;8.76;100.00
5996;BME280;3026;53.612;7.278;2024-03-25T08:48:59;100521.94;;;8.76;100.00
5996;BME280;3026;53.612;7.278;2024-03-25T08:51:27;100521.09;;;8.75;100.00
5996;BME280;3026;53.612;7.278;2024-03-25T08:53:53;100523.13;;;8.73;100.00
5996;BME280;3026;53.612;7.278;2024-03-25T08:56:19;100531.47;;;8.72;100.00
5996;BME280;3026;53.612;7.278;2024-03-25T08:58:47;100531.81;;;8.69;100.00
5996;BME280;3026;53.612;7.278;2024-03-25T09:01:15;100524.50;;;8.69;100.00
5996;BME280;3026;53.612;7.278;2024-03-25T09:03:41;100524.16;;;8.72;100.00
5996;BME280;3026;53.612;7.278;2024-03-25T09:06:07;100530.63;;;8.71;100.00
5996;BME280;3026;53.612;7.278;2024-03-25T09:08:33;100539.13;;;8.68;100.00
5996;BME280;3026;53.612;7.278;2024-03-25T09:10:59;100535.69;;;8.66;100.00
5996;BME280;3026;53.612;7.278;2024-03-25T09:13:29;100535.00;;;8.64;100.00
5996;BME280;3026;53.612;7.278;2024-03-25T09:15:55;100534.00;;;8.73;100.00
5996;BME280;3026;53.612;7.278;2024-03-25T09:18:23;100538.44;;;8.83;100.00
5996;BME280;3026;53.612;7.278;2024-03-25T09:20:51;100531.13;;;8.91;100.00
5996;BME280;3026;53.612;7.278;2024-03-25T09:23:17;100538.78;;;8.96;100.00
5996;BME280;3026;53.612;7.278;2024-03-25T09:25:52;100535.41;;;8.94;100.00
5996;BME280;3026;53.612;7.278;2024-03-25T09:28:19;100537.41;;;9.00;100.00
5996;BME280;3026;53.612;7.278;2024-03-25T09:30:45;100540.50;;;9.05;100.00
5996;BME280;3026;53.612;7.278;2024-03-25T09:33:13;100534.53;;;9.10;100.00
5996;BME280;3026;53.612;7.278;2024-03-25T09:35:40;100541.66;;;9.11;100.00
5996;BME280;3026;53.612;7.278;2024-03-25T09:38:06;100541.50;;;9.04;100.00
5996;BME280;3026;53.612;7.278;2024-03-25T09:40:35;100547.28;;;9.01;100.00
5996;BME280;3026;53.612;7.278;2024-03-25T09:43:02;100557.47;;;8.91;100.00
5996;BME280;3026;53.612;7.278;2024-03-25T09:45:32;100550.16;;;8.83;100.00
5996;BME280;3026;53.612;7.278;2024-03-25T09:47:59;100556.59;;;8.74;100.00
5996;BME280;3026;53.612;7.278;2024-03-25T09:50:26;100544.88;;;8.73;100.00
5996;BME280;3026;53.612;7.278;2024-03-25T09:52:54;100554.06;;;8.72;100.00
5996;BME280;3026;53.612;7.278;2024-03-25T09:55:20;100550.66;;;8.78;100.00
5996;BME280;3026;53.612;7.278;2024-03-25T09:57:47;100547.28;;;8.85;100.00
5996;BME280;3026;53.612;7.278;2024-03-25T10:00:14;100546.59;;;8.91;100.00
5996;BME280;3026;53.612;7.278;2024-03-25T10:02:41;100553.06;;;8.98;100.00
5996;BME280;3026;53.612;7.278;2024-03-25T10:05:08;100549.50;;;9.05;100.00
5996;BME280;3026;53.612;7.278;2024-03-25T10:07:34;100548.47;;;9.31;100.00
5996;BME280;3026;53.612;7.278;2024-03-25T10:10:06;100553.69;;;9.57;100.00
5996;BME280;3026;53.612;7.278;2024-03-25T10:12:33;100555.69;;;9.71;100.00
5996;BME280;3026;53.612;7.278;2024-03-25T10:15:02;100554.09;;;10.01;100.00
5996;BME280;3026;53.612;7.278;2024-03-25T10:17:30;100555.00;;;10.33;100.00
5996;BME280;3026;53.612;7.278;2024-03-25T10:19:56;100561.94;;;10.43;100.00
5996;BME280;3026;53.612;7.278;2024-03-25T10:22:22;100561.13;;;10.35;100.00
5996;BME280;3026;53.612;7.278;2024-03-25T10:24:49;100561.44;;;10.40;100.00
5996;BME280;3026;53.612;7.278;2024-03-25T10:27:20;100554.06;;;10.48;100.00
5996;BME280;3026;53.612;7.278;2024-03-25T10:29:47;100558.94;;;10.84;100.00
5996;BME280;3026;53.612;7.278;2024-03-25T10:32:13;100560.41;;;11.18;100.00
5996;BME280;3026;53.612;7.278;2024-03-25T10:34:40;100562.66;;;11.52;100.00
5996;BME280;3026;53.612;7.278;2024-03-25T10:37:09;100559.19;;;11.73;100.00
5996;BME280;3026;53.612;7.278;2024-03-25T10:39:40;100554.59;;;12.03;100.00
5996;BME280;3026;53.612;7.278;2024-03-25T10:42:14;100566.34;;;11.74;100.00
5996;BME280;3026;53.612;7.278;2024-03-25T10:44:43;100561.69;;;11.45;100.00
5996;BME280;3026;53.612;7.278;2024-03-25T10:47:11;100559.91;;;11.37;100.00
5996;BME280;3026;53.612;7.278;2024-03-25T10:49:48;100565.56;;;11.13;100.00
5996;BME280;3026;53.612;7.278;2024-03-25T10:52:15;100554.31;;;11.30;100.00
5996;BME280;3026;53.612;7.278;2024-03-25T10:54:44;100550.59;;;11.46;100.00
5996;BME280;3026;53.612;7.278;2024-03-25T10:57:13;100553.69;;;11.43;100.00
5996;BME280;3026;53.612;7.278;2024-03-25T10:59:40;100557.06;;;11.45;100.00
5996;BME280;3026;53.612;7.278;2024-03-25T11:02:10;100550.56;;;11.31;100.00
5996;BME280;3026;53.612;7.278;2024-03-25T11:04:38;100552.88;;;11.20;100.00
5996;BME280;3026;53.612;7.278;2024-03-25T11:07:07;100548.78;;;11.01;100.00
5996;BME280;3026;53.612;7.278;2024-03-25T11:09:34;100545.63;;;10.89;100.00
5996;BME280;3026;53.612;7.278;2024-03-25T11:12:00;100541.50;;;10.93;100.00
5996;BME280;3026;53.612;7.278;2024-03-25T11:14:27;100545.13;;;11.08;100.00
5996;BME280;3026;53.612;7.278;2024-03-25T11:16:54;100536.50;;;11.20;100.00
5996;BME280;3026;53.612;7.278;2024-03-25T11:19:27;100539.88;;;11.22;100.00
5996;BME280;3026;53.612;7.278;2024-03-25T11:22:05;100540.31;;;11.10;100.00
5996;BME280;3026;53.612;7.278;2024-03-25T11:24:32;100537.03;;;11.00;100.00
5996;BME280;3026;53.612;7.278;2024-03-25T11:27:00;100537.97;;;10.85;100.00
5996;BME280;3026;53.612;7.278;2024-03-25T11:29:28;100535.19;;;10.70;100.00
5996;BME280;3026;53.612;7.278;2024-03-25T11:31:55;100533.88;;;10.66;100.00
5996;BME280;3026;53.612;7.278;2024-03-25T11:34:25;100534.72;;;10.66;100.00
5996;BME280;3026;53.612;7.278;2024-03-25T11:36:51;100536.16;;;10.54;100.00
5996;BME280;3026;53.612;7.278;2024-03-25T11:39:17;100534.16;;;10.40;100.00
5996;BME280;3026;53.612;7.278;2024-03-25T11:41:44;100534.06;;;10.33;100.00
5996;BME280;3026;53.612;7.278;2024-03-25T11:44:10;100532.72;;;10.21;100.00
5996;BME280;3026;53.612;7.278;2024-03-25T11:46:39;100543.34;;;10.08;100.00
5996;BME280;3026;53.612;7.278;2024-03-25T11:49:06;100529.78;;;9.83;100.00
5996;BME280;3026;53.612;7.278;2024-03-25T11:51:37;100528.16;;;9.66;100.00
5996;BME280;3026;53.612;7.278;2024-03-25T11:54:04;100537.00;;;9.60;100.00
5996;BME280;3026;53.612;7.278;2024-03-25T11:56:31;100536.00;;;9.61;100.00
5996;BME280;3026;53.612;7.278;2024-03-25T11:58:57;100531.56;;;9.60;100.00
5996;BME280;3026;53.612;7.278;2024-03-25T12:01:23;100538.72;;;9.61;100.00
5996;BME280;3026;53.612;7.278;2024-03-25T12:03:50;100523.75;;;9.65;100.00
5996;BME280;3026;53.612;7.278;2024-03-25T12:06:18;100534.28;;;9.68;100.00
5996;BME280;3026;53.612;7.278;2024-03-25T12:08:46;100518.28;;;9.65;100.00
5996;BME280;3026;53.612;7.278;2024-03-25T12:11:13;100515.59;;;9.57;100.00
5996;BME280;3026;53.612;7.278;2024-03-25T12:13:45;100515.88;;;9.70;100.00
5996;BME280;3026;53.612;7.278;2024-03-25T12:16:11;100504.91;;;9.94;100.00
5996;BME280;3026;53.612;7.278;2024-03-25T12:18:40;100504.97;;;10.26;100.00
5996;BME280;3026;53.612;7.278;2024-03-25T12:21:10;100501.84;;;10.60;100.00
5996;BME280;3026;53.612;7.278;2024-03-25T12:23:36;100502.72;;;10.83;100.00
5996;BME280;3026;53.612;7.278;2024-03-25T12:26:04;100507.31;;;10.82;100.00
5996;BME280;3026;53.612;7.278;2024-03-25T12:28:31;100506.84;;;10.79;100.00
5996;BME280;3026;53.612;7.278;2024-03-25T12:30:57;100490.94;;;10.82;100.00
5996;BME280;3026;53.612;7.278;2024-03-25T12:33:24;100492.69;;;10.98;100.00
5996;BME280;3026;53.612;7.278;2024-03-25T12:35:51;100489.44;;;11.18;100.00
5996;BME280;3026;53.612;7.278;2024-03-25T12:38:24;100485.31;;;11.22;100.00
5996;BME280;3026;53.612;7.278;2024-03-25T12:40:51;100484.00;;;11.18;100.00
5996;BME280;3026;53.612;7.278;2024-03-25T12:43:20;100487.38;;;11.20;100.00
5996;BME280;3026;53.612;7.278;2024-03-25T12:45:46;100487.97;;;11.30;100.00
5996;BME280;3026;53.612;7.278;2024-03-25T12:48:13;100480.34;;;11.25;100.00
5996;BME280;3026;53.612;7.278;2024-03-25T12:50:40;100488.47;;;11.10;100.00
5996;BME280;3026;53.612;7.278;2024-03-25T12:53:06;100481.78;;;10.98;100.00
5996;BME280;3026;53.612;7.278;2024-03-25T12:55:33;100477.09;;;11.07;100.00
5996;BME280;3026;53.612;7.278;2024-03-25T12:57:59;100476.19;;;11.15;100.00
5996;BME280;3026;53.612;7.278;2024-03-25T13:00:28;100474.38;;;11.22;100.00
5996;BME280;3026;53.612;7.278;2024-03-25T13:02:55;100472.06;;;11.33;100.00
5996;BME280;3026;53.612;7.278;2024-03-25T13:05:21;100475.47;;;11.50;100.00
5996;BME280;3026;53.612;7.278;2024-03-25T13:07:47;100474.91;;;11.55;100.00
5996;BME280;3026;53.612;7.278;2024-03-25T13:10:13;100472.75;;;11.50;100.00